Atlanta, MI

12:05 AM EDT on March 29, 2015 (GMT -0400)
Moon Lake | | Change Station
CLOSE
Current Station
Personal Weather Station
Location: Lewiston, MI
Elevation: 1240 ft
Nearby Weather Stations

Elev 1240 ft 44.84 °N, 84.26 °W | Updated 1 second ago

Clear
Clear
20.5 °F
Feels Like 20 °F
N
0.0
Wind Variable Wind from WNW
Gusts 0.0 mph

Today
High -- | Low -- °F
--% Chance of Precip.
Yesterday
High -- | Low -- °F
Precip. -- in
7:23 AM 8:00 PM
Waxing Gibbous, 68% visible
Pressure 30.25 in
Visibility 10.0 miles
Clouds Clear
Windchill 20 °F
Dew Point 7 °F
Humidity 56%
Rainfall 0.00 in
Snow Depth Not available.
UV 0 out of 12
Pollen 1.20 out of 12
Air Quality Not available.
Flu Activity Not available.
METAR KGLR 290353Z AUTO 00000KT 10SM CLR M07/M14 A3018 RMK AO2 SLP242 T10671144

More Conditions Fewer Conditions

Pressure 30.25 in
Visibility 10.0 miles
Clouds Clear
Windchill 20 °F
Dew Point 7 °F
Humidity 56%
Rainfall 0.00 in
Snow Depth Not available.
UV 0 out of 12
Pollen 1.20 out of 12
Air Quality Not available.
Flu Activity Not available.
METAR KGLR 290353Z AUTO 00000KT 10SM CLR M07/M14 A3018 RMK AO2 SLP242 T10671144

More Conditions Fewer Conditions

Nowcast | as of 12:00 am EDT on March 29, 2015

At 1 am...mostly clear. Temperature 16. Southwest winds 5 mph. At 3 am...mostly clear. Temperature 12. Southwest winds 6 mph. At 5 am...mostly clear. Temperature 10 above. Southwest winds 7 mph. At 7 am...partly cloudy. Temperature 9 above. South winds 7 mph.

×

10-Day Weather Forecast

Almanac

Astronomy

Mar. 29, 2015 Rise Set
Actual Time
Civil Twilight
Nautical Twilight
Astronomical Twilight
Moon
Length of Visible Light
Length of Day
Tomorrow will be .
, % of the Moon is Illuminated

Today's Extremes

State Highs State Lows

Community

WunderPhotos

Upload Photos

1,809,180 photos uploaded!

WunderBlogs® & News

Nearby

Air Quality

  Air Quality AQ Index Pollutant
Not available.

Snow Depth

Station Depth Elevation

Earthquake Activity

City Distance Mag. Time & Date
Minimum magnitude displayed is 2.5.

Coastal Water Temperatures

Place Temperature

Stations

Nearby Weather Stations

Station Location Temp. Windchill Dew Point Humidity Wind Precip. Elev Updated Type